Time;durP1;ratioP1;P1;durP2;ratioP2;P2;SDS_P1;SDS_P2;PMS_P1;PMS_P2;Temp;Humidity;BMP_temperature;BMP_pressure;BME280_temperature;BME280_humidity;BME280_pressure;Samples;Min_cycle;Max_cycle;Signal;HPM_P1;HPM_P2
2022/01/21 00:01:48;;;;;;;20.63;12.85;;;-2.10;99.90;;;;;;5040183;28;20022;-84
2022/01/21 00:04:14;;;;;;;27.10;14.75;;;-2.20;99.90;;;;;;5039321;28;20027;-86
2022/01/21 00:06:40;;;;;;;28.77;17.25;;;-2.20;99.90;;;;;;5023574;28;20032;-84
2022/01/21 00:09:06;;;;;;;25.35;12.88;;;-2.20;99.90;;;;;;5049656;28;20474;-85
2022/01/21 00:11:33;;;;;;;23.20;12.03;;;-2.10;99.90;;;;;;5051723;28;20072;-84
2022/01/21 00:14:00;;;;;;;21.17;13.20;;;-2.20;99.90;;;;;;5045266;28;20290;-85
2022/01/21 00:16:28;;;;;;;27.13;12.57;;;-2.20;99.90;;;;;;5047316;28;20055;-85
2022/01/21 00:19:03;;;;;;;37.40;16.42;;;-2.30;99.90;;;;;;5043851;28;20025;-80
2022/01/21 00:32:30;;;;;;;20.17;11.90;;;-2.30;99.90;;;;;;5048364;28;20064;-83
2022/01/21 00:34:56;;;;;;;32.10;15.70;;;-2.30;99.90;;;;;;5045603;28;20033;-83
2022/01/21 00:37:22;;;;;;;32.58;16.30;;;-2.30;99.90;;;;;;5036128;28;20031;-83
2022/01/21 00:39:54;;;;;;;29.45;15.35;;;-2.30;99.90;;;;;;5036255;28;20030;-84
2022/01/21 00:44:47;;;;;;;19.13;10.02;;;-2.30;99.90;;;;;;5035918;28;20501;-82
2022/01/21 00:47:12;;;;;;;19.70;10.10;;;-2.30;99.90;;;;;;5035018;28;20026;-85
2022/01/21 00:49:40;;;;;;;30.23;14.10;;;-2.30;99.90;;;;;;5034104;28;20037;-84
2022/01/21 00:52:06;;;;;;;26.55;16.45;;;-2.30;99.90;;;;;;5035335;28;20022;-85
2022/01/21 00:54:31;;;;;;;28.42;11.38;;;-2.30;99.90;;;;;;5035195;28;20478;-83
2022/01/21 00:56:57;;;;;;;18.60;11.43;;;-2.30;99.90;;;;;;5037557;28;20021;-85
2022/01/21 00:59:23;;;;;;;30.02;18.42;;;-2.30;99.90;;;;;;5021203;28;20025;-83
2022/01/21 01:01:49;;;;;;;23.10;12.05;;;-2.30;99.90;;;;;;5043149;28;20021;-84
2022/01/21 01:04:15;;;;;;;24.83;13.02;;;-2.30;99.90;;;;;;5037462;28;20017;-83
2022/01/21 01:06:41;;;;;;;25.52;15.52;;;-2.30;99.90;;;;;;5036825;28;20095;-83
2022/01/21 01:09:07;;;;;;;30.00;16.17;;;-2.30;99.90;;;;;;5036833;28;20025;-84
2022/01/21 01:20:01;;;;;;;32.22;16.02;;;-2.40;99.90;;;;;;5016624;28;20036;-85
2022/01/21 01:22:53;;;;;;;24.90;14.45;;;-2.40;99.90;;;;;;5029273;28;20028;-85
2022/01/21 01:28:07;;;;;;;30.42;16.27;;;-2.40;99.90;;;;;;5020886;28;20079;-84
2022/01/21 01:30:35;;;;;;;27.90;15.32;;;-2.40;99.90;;;;;;5035498;28;20077;-85
2022/01/21 01:33:02;;;;;;;27.92;15.95;;;-2.40;99.90;;;;;;5034167;28;20025;-85
2022/01/21 01:35:32;;;;;;;21.90;11.88;;;-2.30;99.90;;;;;;5034192;28;20021;-82
2022/01/21 01:38:28;;;;;;;15.75;10.00;;;-2.30;99.90;;;;;;5034323;28;20041;-84
2022/01/21 01:40:58;;;;;;;18.83;10.00;;;-2.30;99.90;;;;;;5032464;28;20041;-83
2022/01/21 01:51:23;;;;;;;30.13;16.02;;;-2.20;99.90;;;;;;5054453;28;20437;-82
2022/01/21 01:53:50;;;;;;;28.38;15.63;;;-2.20;99.90;;;;;;5056447;28;20046;-82
2022/01/21 01:56:20;;;;;;;28.00;17.75;;;-2.20;99.90;;;;;;5045466;28;20021;-85
2022/01/21 01:58:46;;;;;;;27.77;15.18;;;-2.20;99.90;;;;;;5049066;28;20036;-82
2022/01/21 02:01:12;;;;;;;30.50;17.45;;;-2.20;99.90;;;;;;5047703;28;20033;-84
2022/01/21 02:03:37;;;;;;;20.08;11.60;;;-2.20;99.90;;;;;;5037862;28;20102;-83
2022/01/21 02:06:05;;;;;;;28.83;15.20;;;-2.20;99.90;;;;;;5018131;28;20018;-82
2022/01/21 02:08:31;;;;;;;24.00;11.88;;;-2.20;99.90;;;;;;5001206;28;20405;-84
2022/01/21 02:10:57;;;;;;;26.52;13.93;;;-2.30;99.90;;;;;;5017516;28;20037;-83
2022/01/21 02:13:27;;;;;;;19.52;11.32;;;-2.30;99.90;;;;;;5016105;28;20410;-85
2022/01/21 02:21:50;;;;;;;15.57;9.50;;;-2.30;99.90;;;;;;5033888;28;20067;-81
2022/01/21 02:24:24;;;;;;;27.42;15.95;;;-2.30;99.90;;;;;;5033238;28;20475;-85
2022/01/21 02:26:51;;;;;;;33.35;15.27;;;-2.40;99.90;;;;;;5034068;28;20084;-84
2022/01/21 02:29:33;;;;;;;25.83;15.25;;;-2.30;99.90;;;;;;5033307;28;20028;-85
2022/01/21 02:32:00;;;;;;;26.48;14.95;;;-2.30;99.90;;;;;;5034004;28;20104;-85
2022/01/21 02:34:27;;;;;;;30.55;16.95;;;-2.30;99.90;;;;;;5015669;28;20057;-83
2022/01/21 02:36:53;;;;;;;26.42;15.95;;;-2.30;99.90;;;;;;5033772;28;20057;-85
2022/01/21 02:39:19;;;;;;;26.05;15.07;;;-2.30;99.90;;;;;;5034829;28;20021;-85
2022/01/21 02:41:45;;;;;;;26.13;14.40;;;-2.30;99.90;;;;;;5019355;28;20488;-86
2022/01/21 02:44:15;;;;;;;23.83;13.85;;;-2.20;99.90;;;;;;5046346;28;20035;-87
2022/01/21 02:46:42;;;;;;;25.05;14.93;;;-2.30;99.90;;;;;;5047226;28;20391;-84
2022/01/21 02:49:09;;;;;;;26.65;15.13;;;-2.30;99.90;;;;;;5044264;28;20025;-86
2022/01/21 02:51:35;;;;;;;27.65;14.13;;;-2.30;99.90;;;;;;5035279;28;20029;-86
2022/01/21 02:54:04;;;;;;;24.35;12.75;;;-2.20;99.90;;;;;;5044790;28;20033;-86
2022/01/21 02:56:35;;;;;;;27.08;15.93;;;-2.30;99.90;;;;;;5035450;28;20044;-86
2022/01/21 02:59:01;;;;;;;24.98;13.88;;;-2.30;99.90;;;;;;5017328;28;20022;-86
2022/01/21 03:01:27;;;;;;;28.73;16.70;;;-2.30;99.90;;;;;;5035257;28;20033;-87
2022/01/21 03:03:55;;;;;;;30.67;16.05;;;-2.30;99.90;;;;;;5035654;28;20100;-87
2022/01/21 03:06:22;;;;;;;31.20;16.45;;;-2.30;99.90;;;;;;5035476;28;20049;-88
2022/01/21 03:08:50;;;;;;;29.30;15.82;;;-2.30;99.90;;;;;;5036996;28;20021;-87
2022/01/21 03:11:15;;;;;;;;;;;-2.30;99.90;;;;;;5049802;28;20032;-84
2022/01/21 03:13:42;;;;;;;29.27;18.10;;;-2.30;99.90;;;;;;5055558;28;19976;-86
2022/01/21 03:16:08;;;;;;;35.60;17.85;;;-2.30;99.90;;;;;;5055325;28;20406;-86
2022/01/21 03:18:34;;;;;;;29.33;16.35;;;-2.30;99.90;;;;;;5023899;28;20036;-86
2022/01/21 03:21:00;;;;;;;30.17;16.70;;;-2.40;99.90;;;;;;5040960;28;20029;-87
2022/01/21 03:23:28;;;;;;;23.60;14.15;;;-2.30;99.90;;;;;;5022168;28;20074;-87
2022/01/21 03:25:53;;;;;;;35.05;18.33;;;-2.40;99.90;;;;;;5039340;28;20024;-87
2022/01/21 03:28:21;;;;;;;27.17;16.60;;;-2.40;99.90;;;;;;5037701;28;20533;-88
2022/01/21 03:30:50;;;;;;;33.80;19.23;;;-2.40;99.90;;;;;;5038044;28;20050;-86
2022/01/21 03:33:16;;;;;;;34.03;18.20;;;-2.40;99.90;;;;;;5037812;28;20065;-85
2022/01/21 03:35:42;;;;;;;32.03;18.02;;;-2.40;99.90;;;;;;5037192;28;20423;-86
2022/01/21 03:38:08;;;;;;;31.88;18.00;;;-2.40;99.90;;;;;;5037128;28;20033;-86
2022/01/21 03:40:33;;;;;;;31.45;18.15;;;-2.30;99.90;;;;;;5037787;28;20024;-84
2022/01/21 03:42:59;;;;;;;31.25;20.45;;;-2.30;99.90;;;;;;5054335;28;20056;-84
2022/01/21 03:45:25;;;;;;;33.88;18.80;;;-2.20;99.90;;;;;;5047043;28;20089;-84
2022/01/21 03:47:52;;;;;;;30.35;19.42;;;-2.20;99.90;;;;;;5055910;28;20040;-84
2022/01/21 03:50:31;;;;;;;34.13;19.92;;;-2.20;99.90;;;;;;5050972;28;20021;-84
2022/01/21 03:52:59;;;;;;;39.92;20.33;;;-2.20;99.90;;;;;;5036842;28;20116;-84
2022/01/21 03:55:24;;;;;;;33.42;21.25;;;-2.20;99.90;;;;;;5033110;28;20030;-88
2022/01/21 03:57:50;;;;;;;35.08;21.75;;;-2.20;99.90;;;;;;5036741;28;20030;-86
2022/01/21 04:00:24;;;;;;;39.15;23.40;;;-2.20;99.90;;;;;;5042974;28;20017;-85
2022/01/21 04:02:50;;;;;;;38.35;19.40;;;-2.20;99.90;;;;;;5053425;28;20029;-83
2022/01/21 04:05:16;;;;;;;36.28;22.02;;;-2.20;99.90;;;;;;5042961;28;20359;-84
2022/01/21 04:07:42;;;;;;;34.03;19.98;;;-2.20;99.90;;;;;;5041060;28;20081;-83
2022/01/21 04:10:08;;;;;;;34.30;20.40;;;-2.30;99.90;;;;;;5038318;28;20026;-85
2022/01/21 04:12:34;;;;;;;39.75;21.38;;;-2.30;99.90;;;;;;5038670;28;20487;-85
2022/01/21 04:15:00;;;;;;;33.83;17.92;;;-2.30;99.90;;;;;;5020220;28;20111;-84
2022/01/21 04:17:26;;;;;;;39.63;22.98;;;-2.30;99.90;;;;;;5017963;28;20029;-84
2022/01/21 04:19:52;;;;;;;46.50;26.00;;;-2.40;99.90;;;;;;5029264;28;20033;-84
2022/01/21 04:22:19;;;;;;;36.53;19.33;;;-2.40;99.90;;;;;;5035767;28;20093;-84
2022/01/21 04:24:46;;;;;;;40.38;21.98;;;-2.40;99.90;;;;;;5036441;28;20045;-84
2022/01/21 04:27:12;;;;;;;38.80;23.10;;;-2.40;99.90;;;;;;5036448;28;20022;-85
2022/01/21 04:29:38;;;;;;;44.60;22.20;;;-2.50;99.90;;;;;;5035509;28;20045;-85
2022/01/21 04:32:06;;;;;;;44.22;23.92;;;-2.50;99.90;;;;;;5022225;28;20379;-84
2022/01/21 04:34:36;;;;;;;42.63;26.40;;;-2.50;99.90;;;;;;5017884;28;20099;-84
2022/01/21 04:37:06;;;;;;;47.60;21.42;;;-2.50;99.90;;;;;;5036062;28;20022;-84
2022/01/21 04:39:37;;;;;;;48.92;25.40;;;-2.50;99.90;;;;;;5035408;28;20151;-86
2022/01/21 04:47:40;;;;;;;44.05;26.38;;;-2.50;99.90;;;;;;5037783;28;20079;-86
2022/01/21 04:50:11;;;;;;;49.13;28.23;;;-2.60;99.90;;;;;;5041731;28;20025;-84
2022/01/21 04:52:38;;;;;;;43.33;23.88;;;-2.60;99.90;;;;;;5040780;28;20018;-85
2022/01/21 04:55:04;;;;;;;37.70;21.45;;;-2.50;99.90;;;;;;5037481;28;20100;-82
2022/01/21 04:57:30;;;;;;;46.15;25.15;;;-2.50;99.90;;;;;;5037841;28;20021;-85
2022/01/21 04:59:56;;;;;;;51.47;28.73;;;-2.60;99.90;;;;;;5039534;28;20021;-85
2022/01/21 05:02:24;;;;;;;51.55;24.88;;;-2.50;99.90;;;;;;5038726;28;20022;-84
2022/01/21 05:04:49;;;;;;;48.05;25.23;;;-2.50;99.90;;;;;;5034929;28;20105;-83
2022/01/21 05:07:20;;;;;;;49.80;26.13;;;-2.40;99.90;;;;;;5034754;28;20025;-82
2022/01/21 05:09:46;;;;;;;47.90;23.13;;;-2.50;99.90;;;;;;5017815;28;20054;-83
2022/01/21 05:12:17;;;;;;;48.97;26.10;;;-2.50;99.90;;;;;;5038343;28;20067;-82
2022/01/21 05:15:03;;;;;;;47.00;24.70;;;-2.50;99.90;;;;;;5040267;28;20026;-84
2022/01/21 05:17:29;;;;;;;55.63;25.95;;;-2.60;99.90;;;;;;5034151;28;20025;-83
2022/01/21 05:19:55;;;;;;;46.45;25.05;;;-2.50;99.90;;;;;;5034559;28;20359;-84
2022/01/21 05:22:21;;;;;;;45.53;25.92;;;-2.50;99.90;;;;;;5033818;28;20025;-85
2022/01/21 05:24:47;;;;;;;52.13;25.65;;;-2.50;99.90;;;;;;5033991;28;20111;-83
2022/01/21 05:27:13;;;;;;;50.78;27.85;;;-2.50;99.90;;;;;;5034236;28;20494;-84
2022/01/21 05:29:40;;;;;;;51.70;26.27;;;-2.50;99.90;;;;;;5034071;28;20057;-84
2022/01/21 05:32:06;;;;;;;46.72;27.13;;;-2.40;99.90;;;;;;5035453;28;20033;-84
2022/01/21 05:34:34;;;;;;;45.20;25.50;;;-2.40;99.90;;;;;;5040190;28;20034;-84
2022/01/21 05:37:00;;;;;;;46.58;25.20;;;-2.50;99.90;;;;;;5056097;28;20089;-85
2022/01/21 05:39:25;;;;;;;46.53;25.05;;;-2.50;99.90;;;;;;5043459;28;20408;-83
2022/01/21 05:41:55;;;;;;;51.13;26.10;;;-2.50;99.90;;;;;;5036884;28;20056;-90
2022/01/21 05:47:02;;;;;;;47.30;25.85;;;-2.60;99.90;;;;;;5038964;28;20017;-88
2022/01/21 05:49:31;;;;;;;47.30;26.80;;;-2.60;99.90;;;;;;5036341;28;20033;-88
2022/01/21 05:52:04;;;;;;;49.63;27.65;;;-2.60;99.90;;;;;;5034960;28;20017;-85
2022/01/21 05:54:30;;;;;;;50.70;24.50;;;-2.60;99.90;;;;;;5040315;28;20128;-85
2022/01/21 05:56:57;;;;;;;57.10;30.15;;;-2.60;99.90;;;;;;5024367;28;20029;-89
2022/01/21 05:59:23;;;;;;;52.97;25.85;;;-2.60;99.90;;;;;;5018197;28;20045;-86
2022/01/21 06:01:50;;;;;;;49.13;21.08;;;-2.70;99.90;;;;;;5025990;28;20093;-89
2022/01/21 06:04:16;;;;;;;45.55;24.13;;;-2.70;99.90;;;;;;5020778;28;20030;-86
2022/01/21 06:06:42;;;;;;;44.40;27.95;;;-2.70;99.90;;;;;;5016759;28;20033;-86
2022/01/21 06:09:08;;;;;;;51.17;26.92;;;-2.80;99.90;;;;;;5028115;28;20038;-85
2022/01/21 06:11:34;;;;;;;55.78;26.30;;;-2.80;99.90;;;;;;5037740;28;20029;-82
2022/01/21 06:14:02;;;;;;;49.15;23.77;;;-2.80;99.90;;;;;;5036702;28;20038;-85
2022/01/21 06:16:29;;;;;;;52.10;25.27;;;-2.80;99.90;;;;;;5026362;28;20025;-86
2022/01/21 06:18:55;;;;;;;53.00;26.17;;;-2.80;99.90;;;;;;5019547;28;20037;-84
2022/01/21 06:21:21;;;;;;;57.47;29.05;;;-2.80;99.90;;;;;;5020165;28;20034;-85
2022/01/21 06:23:47;;;;;;;51.10;26.52;;;-2.90;99.90;;;;;;5035064;28;20092;-87
2022/01/21 06:26:13;;;;;;;48.83;26.45;;;-2.80;99.90;;;;;;5042158;28;20079;-85
2022/01/21 06:28:40;;;;;;;56.05;25.42;;;-2.80;99.90;;;;;;5032304;28;20087;-88
2022/01/21 06:31:07;;;;;;;50.28;27.73;;;-2.80;99.90;;;;;;5015512;28;20111;-88
2022/01/21 06:33:33;;;;;;;43.13;23.00;;;-2.80;99.90;;;;;;4999253;28;20459;-87
2022/01/21 06:35:59;;;;;;;50.05;29.67;;;-2.70;99.90;;;;;;5000252;28;20018;-88
2022/01/21 06:38:25;;;;;;;51.03;28.65;;;-2.70;99.90;;;;;;5023567;28;20026;-86
2022/01/21 06:40:52;;;;;;;56.60;26.67;;;-2.70;99.90;;;;;;5005278;28;20053;-86
2022/01/21 06:43:18;;;;;;;57.20;30.38;;;-2.70;99.90;;;;;;5021675;28;20505;-89
2022/01/21 06:45:44;;;;;;;51.15;27.42;;;-2.70;99.90;;;;;;5015377;28;20032;-90
2022/01/21 06:48:12;;;;;;;53.05;29.98;;;-2.70;99.90;;;;;;5047458;28;20397;-88
2022/01/21 06:50:41;;;;;;;49.63;31.50;;;-2.70;99.90;;;;;;5024731;28;20463;-86
2022/01/21 06:53:07;;;;;;;49.67;27.10;;;-2.70;99.90;;;;;;5039314;28;20025;-86
2022/01/21 06:55:33;;;;;;;54.90;32.90;;;-2.70;99.90;;;;;;5045273;28;20118;-86
2022/01/21 06:57:59;;;;;;;50.10;29.13;;;-2.70;99.90;;;;;;5021305;28;20060;-86
2022/01/21 07:00:25;;;;;;;54.75;31.27;;;-2.70;99.90;;;;;;5038684;28;20494;-85
2022/01/21 07:02:53;;;;;;;63.10;29.15;;;-2.60;99.90;;;;;;5037483;28;20183;-88
2022/01/21 07:05:22;;;;;;;54.88;26.27;;;-2.70;99.90;;;;;;5022116;28;20033;-88
2022/01/21 07:07:49;;;;;;;54.00;28.10;;;-2.70;99.90;;;;;;5023001;28;20025;-91
2022/01/21 07:10:15;;;;;;;56.42;27.33;;;-2.70;99.90;;;;;;5029528;28;20028;-87
2022/01/21 07:12:43;;;;;;;56.83;28.40;;;-2.70;99.90;;;;;;5032776;28;20037;-86
2022/01/21 07:15:11;;;;;;;51.95;26.95;;;-2.70;99.90;;;;;;5017800;28;20049;-87
2022/01/21 07:17:38;;;;;;;56.92;32.65;;;-2.70;99.80;;;;;;5017806;28;20034;-86
2022/01/21 07:20:05;;;;;;;40.13;24.13;;;-2.80;99.90;;;;;;5020500;28;20022;-83
2022/01/21 07:22:31;;;;;;;47.95;26.48;;;-2.80;99.90;;;;;;5032517;28;20072;-86
2022/01/21 07:24:58;;;;;;;53.15;29.10;;;-2.80;99.90;;;;;;5031458;28;20030;-86
2022/01/21 07:27:25;;;;;;;58.45;28.08;;;-2.80;99.90;;;;;;5027528;28;20029;-89
2022/01/21 07:29:52;;;;;;;53.05;29.35;;;-2.80;99.80;;;;;;5030839;28;20053;-91
2022/01/21 07:32:19;;;;;;;44.58;24.88;;;-2.80;99.90;;;;;;5040775;28;20044;-89
2022/01/21 07:34:45;;;;;;;44.53;24.75;;;-2.80;99.90;;;;;;5058382;28;20065;-87
2022/01/21 07:37:11;;;;;;;48.92;28.60;;;-2.80;99.90;;;;;;5028220;28;20083;-88
2022/01/21 07:39:37;;;;;;;59.42;28.45;;;-2.80;99.90;;;;;;5041770;28;20025;-86
2022/01/21 07:42:04;;;;;;;45.83;25.95;;;-2.80;99.90;;;;;;5034902;28;20038;-90
2022/01/21 07:44:30;;;;;;;50.22;26.63;;;-2.80;99.90;;;;;;5013733;28;20021;-88
2022/01/21 07:46:57;;;;;;;46.20;26.48;;;-2.70;99.90;;;;;;5010013;28;20101;-89
2022/01/21 07:49:24;;;;;;;49.65;26.88;;;-2.70;99.80;;;;;;5031608;28;20030;-90
2022/01/21 07:51:50;;;;;;;45.17;25.90;;;-2.70;99.80;;;;;;5018743;28;20082;-87
2022/01/21 07:54:16;;;;;;;46.45;26.23;;;-2.70;99.70;;;;;;5036360;28;20065;-84
2022/01/21 07:56:44;;;;;;;40.97;26.05;;;-2.60;99.60;;;;;;5018458;28;20853;-87
2022/01/21 07:59:12;;;;;;;40.00;26.50;;;-2.60;99.40;;;;;;5033472;28;20441;-86
2022/01/21 08:01:39;;;;;;;48.85;26.23;;;-2.60;99.20;;;;;;5020837;28;20033;-85
2022/01/21 08:04:06;;;;;;;45.10;25.20;;;-2.60;99.20;;;;;;5035306;28;20384;-84
2022/01/21 08:06:33;;;;;;;42.28;24.08;;;-2.60;99.10;;;;;;5036820;28;20631;-86
2022/01/21 08:08:59;;;;;;;46.42;23.10;;;-2.70;99.30;;;;;;5004103;28;20034;-84
2022/01/21 08:11:26;;;;;;;43.50;23.48;;;-2.70;99.20;;;;;;5018329;28;20018;-86
2022/01/21 08:13:52;;;;;;;43.38;23.17;;;-2.70;99.40;;;;;;5032736;28;20828;-87
2022/01/21 08:16:19;;;;;;;46.65;27.00;;;-2.80;99.20;;;;;;5041910;28;20036;-85
2022/01/21 08:18:45;;;;;;;38.67;24.37;;;-2.80;99.40;;;;;;5047660;28;20076;-88
2022/01/21 08:21:18;;;;;;;48.53;25.02;;;-2.80;99.60;;;;;;5055495;28;20005;-88
2022/01/21 08:23:45;;;;;;;42.70;25.92;;;-2.80;99.60;;;;;;5059124;28;20042;-86
2022/01/21 08:26:11;;;;;;;;;;;-2.80;99.60;;;;;;5048113;28;20025;-86
2022/01/21 08:28:37;;;;;;;41.38;23.48;;;-2.70;99.50;;;;;;5039312;28;20003;-86
2022/01/21 08:31:04;;;;;;;40.53;22.50;;;-2.70;99.50;;;;;;5043984;28;20084;-88
2022/01/21 08:33:30;;;;;;;;;;;-2.70;99.60;;;;;;4995959;28;20046;-87
2022/01/21 08:35:56;;;;;;;42.85;23.90;;;-2.70;99.70;;;;;;5054485;28;19905;-87
2022/01/21 08:38:22;;;;;;;40.85;22.52;;;-2.70;99.70;;;;;;5054689;28;20096;-87
2022/01/21 08:40:48;;;;;;;34.53;21.13;;;-2.70;99.90;;;;;;5046674;28;20043;-90
2022/01/21 08:43:14;;;;;;;38.70;22.65;;;-2.70;99.60;;;;;;5042322;28;20021;-88
2022/01/21 08:45:40;;;;;;;39.13;22.05;;;-2.70;99.60;;;;;;5038147;28;20025;-85
2022/01/21 08:48:06;;;;;;;30.42;19.90;;;-2.60;99.50;;;;;;5040611;28;20073;-89
2022/01/21 08:50:32;;;;;;;37.35;21.63;;;-2.60;99.40;;;;;;5041364;28;20025;-86
2022/01/21 08:53:09;;;;;;;31.00;19.73;;;-2.60;99.20;;;;;;5038342;28;20085;-86
2022/01/21 08:55:35;;;;;;;36.25;21.77;;;-2.60;99.10;;;;;;5039182;28;20497;-87
2022/01/21 08:58:01;;;;;;;37.58;21.13;;;-2.50;99.00;;;;;;5035620;28;20029;-84
2022/01/21 09:00:27;;;;;;;36.00;22.20;;;-2.50;99.00;;;;;;5034769;28;20141;-86
2022/01/21 09:02:53;;;;;;;34.95;20.50;;;-2.50;98.70;;;;;;5035819;28;20061;-87
2022/01/21 09:05:19;;;;;;;37.70;21.70;;;-2.50;98.00;;;;;;5037347;28;20030;-84
2022/01/21 09:07:46;;;;;;;34.75;20.58;;;-2.50;97.80;;;;;;5013902;28;20394;-87
2022/01/21 09:10:12;;;;;;;36.33;19.65;;;-2.50;97.60;;;;;;5022582;28;20022;-87
2022/01/21 09:12:42;;;;;;;34.70;21.95;;;-2.40;97.60;;;;;;5046618;28;20506;-86
2022/01/21 09:15:08;;;;;;;38.38;21.23;;;-2.40;97.50;;;;;;5053754;28;20414;-84
2022/01/21 09:17:36;;;;;;;35.83;18.95;;;-2.40;97.40;;;;;;5042189;28;20502;-86
2022/01/21 09:20:03;;;;;;;37.78;20.75;;;-2.40;97.50;;;;;;5038220;28;20021;-85
2022/01/21 09:22:29;;;;;;;37.60;19.90;;;-2.40;97.50;;;;;;5022922;28;20025;-86
2022/01/21 09:24:56;;;;;;;34.17;18.58;;;-2.40;97.70;;;;;;5037387;28;20036;-86
2022/01/21 09:27:22;;;;;;;28.83;17.55;;;-2.30;97.30;;;;;;5022421;28;20026;-84
2022/01/21 09:29:48;;;;;;;33.72;19.83;;;-2.30;97.00;;;;;;5020038;28;20050;-90
2022/01/21 09:32:14;;;;;;;29.95;17.95;;;-2.30;96.80;;;;;;4958436;28;20062;-85
2022/01/21 09:34:40;;;;;;;32.95;16.83;;;-2.30;96.60;;;;;;4961201;29;20046;-86
2022/01/21 09:37:06;;;;;;;30.33;20.50;;;-2.30;96.90;;;;;;4940240;29;20509;-85
2022/01/21 09:39:32;;;;;;;35.80;18.63;;;-2.30;97.00;;;;;;4954805;29;20607;-83
2022/01/21 09:42:01;;;;;;;30.02;16.98;;;-2.30;97.00;;;;;;4956431;29;20043;-83
2022/01/21 09:44:28;;;;;;;30.67;17.70;;;-2.30;97.00;;;;;;4965132;28;20040;-86
2022/01/21 09:46:58;;;;;;;35.28;19.40;;;-2.30;96.90;;;;;;4976742;28;20515;-87
2022/01/21 09:49:27;;;;;;;33.25;17.83;;;-2.30;96.80;;;;;;4978335;28;20033;-89
2022/01/21 09:51:59;;;;;;;33.22;18.33;;;-2.30;96.90;;;;;;4978855;28;20023;-87
2022/01/21 09:54:29;;;;;;;26.63;15.98;;;-2.30;96.80;;;;;;4963681;28;20039;-87
2022/01/21 09:56:57;;;;;;;30.95;18.70;;;-2.30;96.80;;;;;;4990840;28;20083;-87
2022/01/21 09:59:26;;;;;;;27.52;15.90;;;-2.30;96.70;;;;;;4982179;28;20042;-86
2022/01/21 10:01:56;;;;;;;34.67;17.60;;;-2.30;96.60;;;;;;4978237;28;20045;-85
2022/01/21 10:04:28;;;;;;;30.33;18.25;;;-2.30;96.70;;;;;;4975576;28;21090;-84
2022/01/21 10:06:55;;;;;;;35.28;18.63;;;-2.40;96.60;;;;;;4970847;28;20066;-86
2022/01/21 10:09:22;;;;;;;28.90;17.73;;;-2.30;96.50;;;;;;4989399;28;20030;-87
2022/01/21 10:11:49;;;;;;;33.60;18.75;;;-2.40;96.70;;;;;;4999662;28;20141;-86
2022/01/21 10:14:20;;;;;;;31.95;18.63;;;-2.40;96.70;;;;;;5020382;28;20491;-90
2022/01/21 10:16:48;;;;;;;29.48;17.75;;;-2.40;96.60;;;;;;5022296;28;20037;-85
2022/01/21 10:19:28;;;;;;;33.67;19.30;;;-2.40;96.60;;;;;;5035286;28;20028;-87
2022/01/21 10:22:26;;;;;;;32.47;19.75;;;-2.30;96.50;;;;;;5033840;28;20434;-85
2022/01/21 10:25:01;;;;;;;30.50;17.42;;;-2.30;96.20;;;;;;5034633;28;20037;-84
2022/01/21 10:27:35;;;;;;;31.40;19.73;;;-2.30;96.30;;;;;;5045243;28;20028;-85
2022/01/21 10:30:02;;;;;;;34.75;20.20;;;-2.20;96.40;;;;;;5018773;28;20054;-89
2022/01/21 10:32:42;;;;;;;31.52;20.02;;;-2.20;96.30;;;;;;5033788;28;20033;-82
2022/01/21 10:35:31;;;;;;;28.95;15.93;;;-2.20;96.30;;;;;;5010050;28;20121;-87
2022/01/21 10:38:17;;;;;;;32.60;18.98;;;-2.20;96.60;;;;;;5014586;28;20072;-90
2022/01/21 10:40:51;;;;;;;30.55;17.73;;;-2.20;96.50;;;;;;5005993;28;20042;-86
2022/01/21 10:43:19;;;;;;;32.80;20.50;;;-2.20;96.60;;;;;;5017022;28;20054;-87
2022/01/21 10:45:48;;;;;;;;;;;-2.30;96.40;;;;;;5016229;28;20026;-82
2022/01/21 14:56:00;;;;;;;28.27;15.60;;;-3.40;95.60;;;;;;5145024;22;20050;-82
2022/01/21 14:58:26;;;;;;;27.33;14.10;;;-3.40;95.60;;;;;;4994057;28;20029;-83
2022/01/21 15:01:03;;;;;;;25.03;13.83;;;-3.40;95.50;;;;;;4994922;28;20029;-84
2022/01/21 15:03:38;;;;;;;26.80;13.30;;;-3.40;95.50;;;;;;4979497;28;20498;-84
2022/01/21 15:06:15;;;;;;;27.45;14.68;;;-3.40;95.60;;;;;;4995196;28;20026;-83
2022/01/21 15:08:51;;;;;;;20.70;12.77;;;-3.40;95.40;;;;;;4998034;28;20022;-81
2022/01/21 15:14:42;;;;;;;27.65;16.23;;;-3.40;95.60;;;;;;4997729;28;20050;-81
2022/01/21 15:17:12;;;;;;;29.90;12.65;;;-3.40;95.50;;;;;;4997797;28;20062;-81
2022/01/21 15:19:44;;;;;;;19.40;12.95;;;-3.40;95.60;;;;;;4981530;28;20030;-82
2022/01/21 15:22:17;;;;;;;25.13;13.80;;;-3.40;95.80;;;;;;4983725;28;20073;-80
2022/01/21 15:24:44;;;;;;;22.58;13.20;;;-3.50;95.80;;;;;;5000042;28;20023;-82
2022/01/21 15:27:11;;;;;;;22.65;14.90;;;-3.50;95.80;;;;;;4997669;28;20467;-79
2022/01/21 15:29:38;;;;;;;20.88;13.63;;;-3.50;95.70;;;;;;4996742;28;20026;-79
2022/01/21 15:32:09;;;;;;;26.27;13.05;;;-3.40;95.70;;;;;;4979342;28;20101;-79
2022/01/21 15:34:36;;;;;;;24.42;12.65;;;-3.50;95.70;;;;;;4997635;28;20047;-80
2022/01/21 15:37:02;;;;;;;24.67;13.93;;;-3.50;95.60;;;;;;5000425;28;20081;-79
2022/01/21 15:39:28;;;;;;;22.10;14.60;;;-3.50;95.90;;;;;;5001896;28;20037;-80
2022/01/21 15:41:56;;;;;;;21.95;12.70;;;-3.40;96.00;;;;;;5000451;28;20030;-79
2022/01/21 15:44:22;;;;;;;27.40;13.02;;;-3.50;96.20;;;;;;4997239;28;20030;-79
2022/01/21 15:46:48;;;;;;;23.08;13.20;;;-3.50;96.00;;;;;;4997061;28;20046;-79
2022/01/21 15:49:16;;;;;;;25.60;15.00;;;-3.40;96.10;;;;;;4996598;28;20030;-79
2022/01/21 15:51:45;;;;;;;25.98;14.35;;;-3.40;96.10;;;;;;4976783;28;20808;-80
2022/01/21 15:54:11;;;;;;;19.90;13.93;;;-3.40;96.00;;;;;;4977568;28;20035;-79
2022/01/21 15:56:36;;;;;;;26.42;14.35;;;-3.40;95.90;;;;;;4968686;28;20057;-80
2022/01/21 15:59:02;;;;;;;18.73;11.93;;;-3.40;96.00;;;;;;5018859;28;20022;-79
2022/01/21 16:01:28;;;;;;;25.60;14.88;;;-3.40;96.10;;;;;;5024535;28;20018;-80
2022/01/21 16:03:55;;;;;;;23.08;14.02;;;-3.50;96.10;;;;;;5029226;28;20057;-80
2022/01/21 16:06:21;;;;;;;24.17;14.60;;;-3.50;96.00;;;;;;5021846;28;20017;-79
2022/01/21 16:08:47;;;;;;;26.30;14.40;;;-3.40;96.00;;;;;;5001286;28;20422;-80
2022/01/21 16:11:13;;;;;;;22.02;14.68;;;-3.40;96.00;;;;;;4998771;28;20084;-78
2022/01/21 16:13:38;;;;;;;22.30;14.50;;;-3.40;96.00;;;;;;5015740;28;20044;-82
2022/01/21 16:16:05;;;;;;;23.52;13.30;;;-3.40;96.00;;;;;;5015933;28;20105;-81
2022/01/21 16:18:35;;;;;;;24.67;13.20;;;-3.40;96.10;;;;;;5015160;28;20033;-79
2022/01/21 16:21:04;;;;;;;21.65;13.00;;;-3.40;96.00;;;;;;5015566;28;20026;-81
2022/01/21 16:23:30;;;;;;;20.55;12.82;;;-3.40;95.90;;;;;;5017027;28;20423;-81
2022/01/21 16:25:56;;;;;;;24.20;13.95;;;-3.40;95.80;;;;;;4998456;28;20394;-82
2022/01/21 16:28:22;;;;;;;18.25;13.25;;;-3.40;95.90;;;;;;5015831;28;20026;-80
2022/01/21 16:30:52;;;;;;;20.30;13.52;;;-3.40;95.80;;;;;;5010540;28;20031;-80
2022/01/21 16:33:17;;;;;;;21.58;12.63;;;-3.40;96.00;;;;;;4998944;28;20040;-79
2022/01/21 16:35:43;;;;;;;20.13;11.77;;;-3.40;96.00;;;;;;5016603;28;20058;-79
2022/01/21 16:38:09;;;;;;;25.00;13.50;;;-3.30;96.00;;;;;;4994094;28;20036;-79
2022/01/21 16:40:36;;;;;;;19.55;11.32;;;-3.40;95.90;;;;;;4997243;28;20085;-78
2022/01/21 16:43:02;;;;;;;19.40;13.10;;;-3.40;95.90;;;;;;4997628;28;20027;-78
2022/01/21 16:45:27;;;;;;;22.75;13.05;;;-3.40;95.90;;;;;;4988686;28;20041;-80
2022/01/21 16:47:53;;;;;;;21.30;11.90;;;-3.40;95.70;;;;;;4994324;28;20038;-80
2022/01/21 16:50:20;;;;;;;24.17;13.18;;;-3.40;95.90;;;;;;4980600;28;20026;-81
2022/01/21 16:52:46;;;;;;;21.80;14.10;;;-3.40;96.00;;;;;;4983038;28;20113;-79
2022/01/21 16:55:12;;;;;;;22.75;12.05;;;-3.40;96.00;;;;;;4997416;28;20074;-80
2022/01/21 16:57:39;;;;;;;20.63;12.80;;;-3.40;96.10;;;;;;5008135;28;20046;-80
2022/01/21 17:00:07;;;;;;;23.15;14.75;;;-3.40;96.20;;;;;;4998485;28;20025;-80
2022/01/21 17:02:33;;;;;;;20.08;12.40;;;-3.40;96.20;;;;;;4996838;28;20033;-81
2022/01/21 17:04:59;;;;;;;20.63;12.25;;;-3.40;96.20;;;;;;4996413;28;20109;-78
2022/01/21 17:07:25;;;;;;;19.50;12.95;;;-3.40;96.20;;;;;;4996162;28;20034;-79
2022/01/21 17:09:52;;;;;;;27.27;14.27;;;-3.40;96.20;;;;;;4997498;28;20053;-80
2022/01/21 17:12:20;;;;;;;21.15;12.25;;;-3.40;96.10;;;;;;4969094;28;20027;-80
2022/01/21 17:14:47;;;;;;;23.50;12.75;;;-3.40;96.10;;;;;;4997732;28;20054;-80
2022/01/21 17:17:15;;;;;;;26.63;14.23;;;-3.40;96.10;;;;;;4985325;28;20027;-80
2022/01/21 17:19:41;;;;;;;;;;;-3.40;96.00;;;;;;4998164;28;20026;-80
2022/01/21 17:22:10;;;;;;;27.20;16.15;;;-3.40;96.00;;;;;;4997438;28;19905;-81
2022/01/21 17:24:39;;;;;;;26.92;15.52;;;-3.50;96.00;;;;;;5000041;28;20450;-79
2022/01/21 17:27:06;;;;;;;24.08;13.50;;;-3.50;96.10;;;;;;5006569;28;20018;-79
2022/01/21 17:29:32;;;;;;;22.73;14.52;;;-3.50;96.00;;;;;;5001677;28;20045;-79